LKMT/OSR METAR and TAF weather

Enter ICAO airport designator
Station Type Date Time Source
LKMT METAR 2020/12/05 05:30 UTC NOAA

LKMT 050530Z 02006KT 9999 FEW035 05/02 Q1004 NOSIG


Station Type Date Time Source
LKMT Decoded METAR 2020/12/05 05:30 UTC NOAA

Ostrava / Mosnov, Czech Republic (LKMT) 49-41N 018-07E 256M
Dec 05, 2020 - 12:30 AM EST / 2020.12.05 0530 UTC
Wind: from the NNE (020 degrees) at 7 MPH (6 KT):0
Visibility: greater than 7 mile(s):0
Sky conditions: mostly clear
Temperature: 41 F (5 C)
Dew Point: 35 F (2 C)
Relative Humidity: 80%
Pressure (altimeter): 29.65 in. Hg (1004 hPa)
ob: LKMT 050530Z 02006KT 9999 FEW035 05/02 Q1004 NOSIG
cycle: 5

Station Type Date Time Source
LKMT TAF 2020/12/05 06:09 UTC NOAA

TAF TAF LKMT 050500Z 0506/0612 21012KT 9999 SCT030
TEMPO 0506/0515 19017KT
BECMG 0509/0510 CAVOK
BECMG 0609/0611 9999 BKN040

Example: see airport list